Stone Lake, Wisconsin
Current Conditions -  °F | °C
As of 7:53 PM on Saturday 22 Nov 2014 (Local Time) from KHYR Reporting Station
Haze Haze  
Wind Chill: 27°   Ceiling: 400
Heat Index: 34°   Visibility: 4mi
Dew Point: 32°   Wind: 9mph
Humidity: 92%   Direction: 170°S
Pressure: 29.64"   Gusts: NA
Location:  45.85°N, 91.54°W
Report Text: KHYR 230153Z AUTO 17008KT 4SM BR OVC004 01/00 A2964 RMK AO2 SLP050 T00110000
Loading
Personal Weather Stations






























Interactive Weather Map New forecast layout! Learn more

10-Day Weather Forecast

Advertisements
Track Severe Weather on mobile